createdAt,value
2023-03-16T00:00:29.934Z,11.50
2023-03-16T00:03:31.000Z,10.90
2023-03-16T00:06:01.322Z,11.20
2023-03-16T00:08:39.569Z,11.00
2023-03-16T00:11:15.689Z,10.10
2023-03-16T00:13:52.876Z,11.40
2023-03-16T00:16:29.733Z,11.10
2023-03-16T00:19:06.725Z,10.40
2023-03-16T00:21:43.387Z,12.00
2023-03-16T00:24:13.726Z,11.70
2023-03-16T00:26:49.690Z,12.70
2023-03-16T00:32:01.194Z,8.70
2023-03-16T00:34:37.825Z,10.90
2023-03-16T00:37:15.742Z,11.80
2023-03-16T00:39:53.697Z,7.50
2023-03-16T00:42:34.511Z,11.30
2023-03-16T00:45:12.576Z,12.00
2023-03-16T00:47:49.153Z,11.40
2023-03-16T00:50:26.129Z,11.00
2023-03-16T00:53:03.987Z,11.30
2023-03-16T00:55:34.090Z,9.70
2023-03-16T00:58:21.256Z,12.00
2023-03-16T01:00:53.949Z,10.30
2023-03-16T01:03:30.437Z,10.60
2023-03-16T01:06:13.937Z,12.10
2023-03-16T01:08:50.162Z,11.00
2023-03-16T01:11:26.967Z,9.30
2023-03-16T01:14:04.125Z,11.20
2023-03-16T01:16:41.605Z,9.50
2023-03-16T01:19:19.046Z,11.50
2023-03-16T01:21:55.917Z,11.30
2023-03-16T01:24:32.822Z,8.80
2023-03-16T01:27:11.053Z,10.10
2023-03-16T01:29:47.529Z,7.80
2023-03-16T01:32:18.867Z,6.50
2023-03-16T01:34:52.138Z,9.50
2023-03-16T01:37:30.407Z,7.30
2023-03-16T01:40:09.134Z,10.00
2023-03-16T01:43:05.042Z,9.80
2023-03-16T01:46:21.263Z,10.60
2023-03-16T01:49:26.043Z,9.80
2023-03-16T01:52:21.769Z,8.90
2023-03-16T01:55:03.408Z,9.10
2023-03-16T01:57:42.925Z,7.60
2023-03-16T02:00:20.739Z,7.70
2023-03-16T02:02:57.724Z,9.10
2023-03-16T02:05:45.987Z,9.80
2023-03-16T02:08:18.483Z,8.60
2023-03-16T02:10:50.847Z,8.30
2023-03-16T02:13:34.303Z,6.60
2023-03-16T02:16:13.158Z,9.10
2023-03-16T02:18:52.000Z,8.50
2023-03-16T02:21:57.790Z,7.90
2023-03-16T02:24:35.719Z,9.70
2023-03-16T02:27:24.222Z,9.20
2023-03-16T02:30:12.722Z,6.50
2023-03-16T02:32:53.568Z,9.00
2023-03-16T02:35:30.834Z,8.60
2023-03-16T02:38:09.198Z,7.80
2023-03-16T02:40:47.861Z,7.20
2023-03-16T02:43:29.105Z,7.80
2023-03-16T02:46:07.970Z,7.30
2023-03-16T02:49:10.395Z,8.70
2023-03-16T02:51:50.069Z,6.70
2023-03-16T02:54:27.056Z,7.40
2023-03-16T02:57:05.291Z,8.40
2023-03-16T02:59:35.718Z,9.00
2023-03-16T03:02:14.071Z,8.10
2023-03-16T03:04:54.779Z,7.40
2023-03-16T03:07:32.153Z,7.00
2023-03-16T03:10:11.526Z,8.20
2023-03-16T03:12:50.016Z,7.00
2023-03-16T03:15:27.389Z,7.60
2023-03-16T03:18:05.164Z,8.40
2023-03-16T03:20:41.649Z,8.10
2023-03-16T03:23:18.272Z,6.60
2023-03-16T03:25:58.585Z,6.60
2023-03-16T03:28:35.602Z,6.90
2023-03-16T03:31:06.357Z,8.20
2023-03-16T03:33:38.198Z,5.90
2023-03-16T03:36:15.149Z,7.20
2023-03-16T03:38:52.105Z,7.10
2023-03-16T03:41:29.606Z,7.30
2023-03-16T03:44:08.225Z,8.40
2023-03-16T03:46:45.694Z,7.60
2023-03-16T03:49:22.797Z,7.20
2023-03-16T03:51:59.635Z,8.30
2023-03-16T03:54:37.027Z,7.90
2023-03-16T03:57:14.115Z,8.10
2023-03-16T03:59:50.867Z,8.70
2023-03-16T04:02:28.474Z,7.30
2023-03-16T04:05:08.779Z,7.70
2023-03-16T04:07:40.266Z,9.30
2023-03-16T04:10:15.706Z,6.90
2023-03-16T04:15:28.008Z,9.50
2023-03-16T04:18:04.948Z,8.30
2023-03-16T04:20:42.746Z,8.60
2023-03-16T04:23:19.325Z,9.70
2023-03-16T04:25:56.252Z,9.10
2023-03-16T04:28:33.600Z,9.50
2023-03-16T04:31:12.441Z,8.40
2023-03-16T04:33:44.233Z,9.10
2023-03-16T04:36:17.234Z,9.80
2023-03-16T04:38:48.074Z,7.70
2023-03-16T04:41:26.130Z,7.60
2023-03-16T04:44:03.170Z,7.40
2023-03-16T04:46:34.445Z,9.20
2023-03-16T04:49:12.581Z,9.30
2023-03-16T04:51:45.249Z,9.50
2023-03-16T04:54:17.331Z,8.00
2023-03-16T04:56:54.948Z,8.60
2023-03-16T04:59:32.392Z,8.60
2023-03-16T05:02:09.682Z,7.80
2023-03-16T05:04:47.863Z,9.50
2023-03-16T05:07:24.847Z,8.30
2023-03-16T05:10:01.496Z,9.20
2023-03-16T05:12:38.327Z,8.30
2023-03-16T05:15:10.139Z,4.40
2023-03-16T05:17:43.736Z,9.70
2023-03-16T05:20:19.081Z,9.60
2023-03-16T05:22:55.505Z,9.10
2023-03-16T05:25:32.811Z,8.40
2023-03-16T05:28:03.514Z,8.00
2023-03-16T05:30:42.851Z,8.40
2023-03-16T05:33:20.052Z,8.70
2023-03-16T05:35:58.378Z,9.00
2023-03-16T05:38:37.135Z,9.40
2023-03-16T05:41:15.424Z,9.40
2023-03-16T05:43:52.109Z,8.50
2023-03-16T05:46:22.487Z,8.50
2023-03-16T05:48:58.568Z,5.70
2023-03-16T05:54:11.250Z,9.50
2023-03-16T05:56:48.570Z,10.10
2023-03-16T05:59:25.390Z,8.20
2023-03-16T06:01:55.775Z,8.70
2023-03-16T06:04:27.867Z,8.10
2023-03-16T06:06:59.575Z,9.60
2023-03-16T06:09:37.086Z,9.00
2023-03-16T06:12:14.161Z,7.80
2023-03-16T06:14:51.047Z,8.40
2023-03-16T06:17:27.705Z,10.00
2023-03-16T06:20:05.618Z,9.60
2023-03-16T06:22:45.535Z,9.70
2023-03-16T06:25:21.975Z,8.20
2023-03-16T06:27:58.768Z,10.60
2023-03-16T06:30:36.032Z,8.80
2023-03-16T06:33:06.654Z,8.20
2023-03-16T06:35:40.445Z,8.20
2023-03-16T06:38:17.831Z,8.60
2023-03-16T06:40:57.419Z,8.20
2023-03-16T06:43:34.465Z,8.60
2023-03-16T06:46:13.951Z,5.80
2023-03-16T06:48:53.777Z,7.80
2023-03-16T06:51:32.232Z,7.10
2023-03-16T06:54:09.320Z,8.90
2023-03-16T06:56:41.017Z,9.10
2023-03-16T06:59:18.586Z,8.50
2023-03-16T07:01:55.013Z,8.00
2023-03-16T07:04:31.634Z,8.20
2023-03-16T07:07:15.971Z,8.80
2023-03-16T07:10:02.334Z,7.70
2023-03-16T07:12:42.672Z,6.00
2023-03-16T07:15:25.865Z,9.00
2023-03-16T07:18:13.752Z,8.40
2023-03-16T07:20:54.714Z,6.10
2023-03-16T07:23:36.659Z,5.30
2023-03-16T07:26:15.684Z,7.40
2023-03-16T07:28:55.732Z,7.20
2023-03-16T07:31:35.902Z,6.30
2023-03-16T07:34:16.710Z,6.70
2023-03-16T07:36:59.453Z,8.00
2023-03-16T07:39:39.625Z,6.90
2023-03-16T07:42:23.408Z,8.70
2023-03-16T07:45:03.965Z,5.30
2023-03-16T07:47:42.111Z,7.60
2023-03-16T07:50:21.322Z,7.60
2023-03-16T07:53:06.366Z,7.60
2023-03-16T07:55:45.187Z,10.00
2023-03-16T07:58:23.430Z,9.00
2023-03-16T08:01:02.845Z,9.70
2023-03-16T08:03:35.220Z,9.20
2023-03-16T08:06:15.155Z,7.90
2023-03-16T08:08:59.861Z,8.70
2023-03-16T08:11:36.929Z,7.30
2023-03-16T08:14:24.230Z,9.50
2023-03-16T08:17:14.922Z,7.80
2023-03-16T08:19:58.562Z,5.90
2023-03-16T08:22:51.056Z,8.10
2023-03-16T08:25:32.315Z,8.30
2023-03-16T08:28:11.043Z,7.30
2023-03-16T08:30:54.464Z,5.40
2023-03-16T08:33:32.200Z,5.40
2023-03-16T08:36:17.653Z,8.70
2023-03-16T08:39:06.481Z,7.80
2023-03-16T08:42:09.173Z,6.90
2023-03-16T08:44:42.357Z,7.10
2023-03-16T08:47:30.187Z,5.20
2023-03-16T08:50:13.571Z,8.00
2023-03-16T08:52:50.589Z,9.30
2023-03-16T08:55:42.660Z,8.50
2023-03-16T08:58:23.012Z,7.50
2023-03-16T09:01:03.177Z,9.90
2023-03-16T09:03:48.120Z,8.40
2023-03-16T09:06:26.709Z,8.60
2023-03-16T09:09:04.885Z,7.90
2023-03-16T09:12:01.307Z,6.60
2023-03-16T09:14:42.471Z,7.10
2023-03-16T09:17:23.488Z,4.80
2023-03-16T09:20:22.273Z,5.50
2023-03-16T09:23:02.047Z,6.00
2023-03-16T09:25:47.599Z,7.80
2023-03-16T09:28:42.836Z,5.50
2023-03-16T09:31:25.440Z,4.30
2023-03-16T09:34:08.551Z,5.90
2023-03-16T09:36:41.399Z,23.00
2023-03-16T09:39:23.724Z,5.40
2023-03-16T09:42:24.963Z,7.60
2023-03-16T09:45:46.816Z,6.90
2023-03-16T09:48:30.141Z,7.10
2023-03-16T09:51:55.491Z,5.70
2023-03-16T09:54:55.777Z,5.10
2023-03-16T09:57:40.272Z,6.00
2023-03-16T10:00:26.470Z,7.70
2023-03-16T10:04:01.189Z,6.80
2023-03-16T10:06:49.033Z,5.90
2023-03-16T10:09:39.465Z,6.60
2023-03-16T10:12:17.903Z,5.10
2023-03-16T10:15:13.635Z,7.10
2023-03-16T10:18:20.481Z,5.00
2023-03-16T10:21:01.233Z,3.80
2023-03-16T10:23:43.224Z,5.90
2023-03-16T10:26:34.838Z,5.90
2023-03-16T10:32:03.667Z,5.00
2023-03-16T10:34:42.151Z,4.50
2023-03-16T10:37:41.076Z,5.10
2023-03-16T10:40:37.811Z,3.50
2023-03-16T10:43:17.847Z,3.40
2023-03-16T10:45:52.404Z,3.10
2023-03-16T10:48:41.347Z,4.10
2023-03-16T10:51:41.322Z,3.70
2023-03-16T10:54:28.765Z,4.50
2023-03-16T10:57:31.304Z,4.30
2023-03-16T11:00:23.527Z,3.90
2023-03-16T11:03:23.869Z,4.50
2023-03-16T11:06:20.939Z,3.80
2023-03-16T11:09:26.448Z,4.50
2023-03-16T11:15:25.281Z,6.60
2023-03-16T11:18:11.919Z,6.40
2023-03-16T11:20:55.239Z,6.20
2023-03-16T11:23:46.091Z,4.80
2023-03-16T11:26:44.957Z,5.40
2023-03-16T11:30:00.437Z,4.80
2023-03-16T11:32:51.756Z,4.70
2023-03-16T11:35:58.469Z,4.00
2023-03-16T11:39:29.085Z,4.60
2023-03-16T11:42:26.802Z,5.50
2023-03-16T11:45:38.721Z,4.30
2023-03-16T11:48:44.992Z,4.30
2023-03-16T11:51:58.572Z,6.80
2023-03-16T11:55:18.441Z,4.10
2023-03-16T11:58:42.124Z,4.70
2023-03-16T12:02:02.208Z,4.80
2023-03-16T12:05:15.670Z,4.80
2023-03-16T12:08:08.591Z,4.10
2023-03-16T12:11:17.465Z,5.40
2023-03-16T12:14:19.660Z,4.80
2023-03-16T12:17:14.110Z,4.70
2023-03-16T12:20:07.523Z,4.70
2023-03-16T12:23:08.164Z,3.60
2023-03-16T12:25:50.855Z,4.50
2023-03-16T12:28:32.211Z,3.30
2023-03-16T12:31:42.874Z,3.80
2023-03-16T12:35:19.069Z,4.00
2023-03-16T12:38:39.637Z,4.40
2023-03-16T12:41:43.209Z,4.20
2023-03-16T12:47:36.767Z,5.30
2023-03-16T12:50:22.671Z,3.90
2023-03-16T12:53:02.184Z,5.40
2023-03-16T12:55:46.905Z,4.80
2023-03-16T12:58:27.982Z,4.30
2023-03-16T13:01:11.938Z,4.30
2023-03-16T13:04:01.960Z,3.50
2023-03-16T13:07:05.529Z,4.30
2023-03-16T13:10:09.404Z,5.10
2023-03-16T13:12:52.223Z,4.60
2023-03-16T13:15:34.182Z,4.50
2023-03-16T13:18:46.284Z,4.50
2023-03-16T13:21:46.521Z,5.10
2023-03-16T13:24:57.526Z,4.30
2023-03-16T13:27:40.963Z,3.50
2023-03-16T13:30:33.752Z,4.60
2023-03-16T13:33:41.276Z,3.50
2023-03-16T13:36:34.360Z,3.60
2023-03-16T13:39:30.583Z,4.70
2023-03-16T13:42:27.969Z,4.00
2023-03-16T13:45:21.569Z,3.90
2023-03-16T13:47:54.081Z,3.30
2023-03-16T13:50:36.433Z,4.70
2023-03-16T13:53:29.407Z,4.00
2023-03-16T13:56:27.795Z,4.00
2023-03-16T13:59:07.610Z,3.70
2023-03-16T14:01:49.366Z,3.70
2023-03-16T14:04:30.140Z,3.70
2023-03-16T14:07:17.844Z,3.70
2023-03-16T14:09:54.532Z,3.20
2023-03-16T14:12:33.350Z,4.70
2023-03-16T14:15:14.525Z,3.30
2023-03-16T14:17:53.053Z,5.00
2023-03-16T14:20:34.966Z,4.20
2023-03-16T14:23:41.305Z,4.00
2023-03-16T14:26:27.223Z,2.90
2023-03-16T14:29:34.058Z,2.80
2023-03-16T14:32:35.066Z,4.20
2023-03-16T14:35:22.317Z,4.30
2023-03-16T14:37:57.625Z,3.70
2023-03-16T14:40:35.209Z,3.90
2023-03-16T14:43:15.331Z,3.70
2023-03-16T14:45:54.867Z,5.10
2023-03-16T14:48:35.535Z,3.50
2023-03-16T14:51:15.683Z,4.10
2023-03-16T14:53:53.334Z,3.80
2023-03-16T14:56:36.374Z,3.60
2023-03-16T14:59:14.683Z,4.50
2023-03-16T15:01:55.017Z,3.70
2023-03-16T15:04:38.154Z,4.20
2023-03-16T15:07:32.767Z,3.00
2023-03-16T15:10:34.882Z,3.50
2023-03-16T15:14:15.199Z,3.40
2023-03-16T15:16:53.353Z,3.50
2023-03-16T15:19:24.544Z,4.40
2023-03-16T15:21:59.564Z,2.90
2023-03-16T15:24:36.142Z,2.80
2023-03-16T15:27:20.801Z,2.60
2023-03-16T15:29:58.096Z,1.90
2023-03-16T15:32:36.163Z,4.00
2023-03-16T15:35:14.767Z,3.80
2023-03-16T15:37:53.103Z,2.50
2023-03-16T15:40:31.984Z,3.20
2023-03-16T15:43:17.583Z,3.60
2023-03-16T15:45:57.300Z,6.00
2023-03-16T15:48:34.140Z,3.10
2023-03-16T15:51:24.194Z,3.50
2023-03-16T15:54:08.909Z,3.10
2023-03-16T15:56:53.737Z,3.30
2023-03-16T15:59:28.013Z,4.40
2023-03-16T16:02:00.216Z,3.50
2023-03-16T16:04:37.663Z,3.70
2023-03-16T16:07:17.992Z,3.70
2023-03-16T16:09:56.522Z,5.30
2023-03-16T16:12:35.525Z,4.60
2023-03-16T16:15:26.612Z,4.00
2023-03-16T16:18:21.222Z,6.60
2023-03-16T16:21:05.542Z,4.00
2023-03-16T16:23:43.605Z,4.10
2023-03-16T16:26:48.332Z,5.20
2023-03-16T16:29:27.757Z,6.60
2023-03-16T16:31:58.823Z,5.00
2023-03-16T16:34:30.202Z,4.20
2023-03-16T16:37:08.928Z,4.30
2023-03-16T16:39:47.596Z,5.40
2023-03-16T16:42:26.569Z,4.70
2023-03-16T16:45:04.712Z,6.90
2023-03-16T16:47:43.544Z,4.60
2023-03-16T16:50:34.829Z,5.70
2023-03-16T16:53:24.490Z,9.40
2023-03-16T16:56:00.388Z,11.60
2023-03-16T16:58:40.237Z,14.20
2023-03-16T17:01:37.011Z,4.60
2023-03-16T17:04:30.014Z,4.50
2023-03-16T17:07:13.013Z,4.00
2023-03-16T17:09:52.228Z,4.30
2023-03-16T17:12:31.959Z,5.60
2023-03-16T17:15:02.792Z,5.00
2023-03-16T17:17:41.193Z,5.30
2023-03-16T17:20:26.318Z,4.90
2023-03-16T17:23:06.601Z,4.40
2023-03-16T17:25:45.300Z,4.70
2023-03-16T17:28:24.044Z,4.70
2023-03-16T17:31:02.021Z,5.70
2023-03-16T17:33:39.510Z,5.30
2023-03-16T17:36:20.645Z,5.10
2023-03-16T17:38:52.617Z,6.20
2023-03-16T17:41:29.066Z,4.40
2023-03-16T17:44:06.280Z,4.50
2023-03-16T17:46:41.265Z,6.20
2023-03-16T17:49:21.453Z,6.10
2023-03-16T17:52:01.116Z,5.20
2023-03-16T17:54:38.822Z,5.80
2023-03-16T17:57:24.357Z,5.40
2023-03-16T18:00:02.084Z,5.40
2023-03-16T18:02:54.695Z,6.00
2023-03-16T18:05:38.835Z,4.40
2023-03-16T18:08:36.402Z,5.30
2023-03-16T18:11:21.565Z,5.60
2023-03-16T18:13:53.875Z,5.40
2023-03-16T18:16:33.563Z,4.80
2023-03-16T18:19:25.402Z,5.20
2023-03-16T18:22:02.953Z,4.80
2023-03-16T18:24:34.191Z,5.30
2023-03-16T18:27:15.793Z,5.90
2023-03-16T18:29:55.482Z,5.40
2023-03-16T18:32:34.475Z,5.20
2023-03-16T18:35:20.809Z,6.50
2023-03-16T18:37:59.245Z,5.20
2023-03-16T18:40:38.214Z,6.30
2023-03-16T18:43:21.246Z,6.30
2023-03-16T18:46:00.359Z,5.50
2023-03-16T18:48:39.122Z,6.40
2023-03-16T18:51:19.572Z,6.90
2023-03-16T18:53:59.605Z,5.00
2023-03-16T18:56:44.515Z,5.40
2023-03-16T18:59:23.210Z,6.50
2023-03-16T19:02:01.993Z,5.60
2023-03-16T19:04:41.001Z,5.20
2023-03-16T19:07:30.096Z,5.30
2023-03-16T19:10:34.015Z,5.80
2023-03-16T19:13:21.695Z,6.40
2023-03-16T19:15:56.256Z,7.10
2023-03-16T19:18:43.427Z,6.20
2023-03-16T19:21:23.840Z,5.60
2023-03-16T19:24:06.205Z,5.30
2023-03-16T19:26:44.472Z,5.20
2023-03-16T19:29:25.453Z,5.50
2023-03-16T19:32:03.681Z,4.90
2023-03-16T19:34:41.645Z,5.10
2023-03-16T19:37:25.518Z,7.60
2023-03-16T19:40:04.013Z,6.40
2023-03-16T19:42:43.792Z,5.70
2023-03-16T19:45:31.019Z,6.50
2023-03-16T19:48:21.726Z,5.90
2023-03-16T19:50:59.799Z,6.50
2023-03-16T19:53:31.082Z,7.30
2023-03-16T19:56:05.677Z,6.80
2023-03-16T19:58:45.324Z,6.90
2023-03-16T20:01:35.212Z,6.90
2023-03-16T20:04:21.151Z,7.40
2023-03-16T20:06:59.352Z,6.30
2023-03-16T20:09:29.659Z,7.10
2023-03-16T20:12:05.701Z,6.80
2023-03-16T20:14:44.646Z,7.20
2023-03-16T20:17:27.416Z,8.20
2023-03-16T20:20:06.774Z,7.90
2023-03-16T20:22:45.389Z,7.80
2023-03-16T20:25:24.063Z,7.00
2023-03-16T20:28:04.164Z,7.00
2023-03-16T20:30:41.936Z,6.70
2023-03-16T20:33:27.287Z,8.20
2023-03-16T20:36:06.008Z,9.90
2023-03-16T20:38:44.278Z,7.60
2023-03-16T20:41:32.871Z,7.10
2023-03-16T20:44:14.272Z,7.10
2023-03-16T20:46:48.420Z,7.00
2023-03-16T20:49:32.762Z,7.70
2023-03-16T20:52:30.091Z,7.70
2023-03-16T20:55:17.612Z,6.60
2023-03-16T20:57:57.806Z,6.30
2023-03-16T21:00:40.478Z,7.30
2023-03-16T21:03:23.421Z,6.90
2023-03-16T21:05:59.036Z,6.90
2023-03-16T21:08:38.636Z,7.60
2023-03-16T21:11:27.320Z,7.90
2023-03-16T21:14:05.142Z,7.70
2023-03-16T21:16:42.667Z,8.70
2023-03-16T21:19:24.949Z,7.90
2023-03-16T21:22:02.854Z,8.60
2023-03-16T21:24:40.443Z,6.70
2023-03-16T21:27:23.862Z,7.60
2023-03-16T21:30:07.998Z,8.60
2023-03-16T21:32:45.217Z,9.20
2023-03-16T21:35:26.431Z,8.80
2023-03-16T21:38:12.740Z,7.30
2023-03-16T21:40:49.751Z,11.20
2023-03-16T21:43:27.024Z,9.80
2023-03-16T21:46:04.222Z,10.40
2023-03-16T21:48:46.072Z,9.50
2023-03-16T21:51:30.718Z,11.60
2023-03-16T21:54:12.739Z,8.00
2023-03-16T21:56:51.319Z,10.00
2023-03-16T21:59:29.001Z,10.70
2023-03-16T22:02:16.082Z,11.10
2023-03-16T22:04:47.114Z,9.60
2023-03-16T22:07:26.167Z,9.70
2023-03-16T22:10:04.368Z,10.00
2023-03-16T22:12:41.881Z,7.90
2023-03-16T22:15:21.352Z,9.00
2023-03-16T22:18:00.232Z,9.60
2023-03-16T22:20:37.766Z,9.30
2023-03-16T22:23:35.091Z,9.80
2023-03-16T22:26:11.360Z,10.00
2023-03-16T22:28:48.783Z,10.30
2023-03-16T22:31:35.341Z,12.40
2023-03-16T22:34:35.666Z,11.10
2023-03-16T22:37:18.784Z,11.20
2023-03-16T22:39:59.055Z,11.70
2023-03-16T22:42:40.219Z,12.40
2023-03-16T22:45:31.375Z,11.30
2023-03-16T22:48:28.097Z,10.10
2023-03-16T22:51:07.851Z,13.30
2023-03-16T22:53:48.692Z,11.90
2023-03-16T22:56:27.586Z,12.70
2023-03-16T22:59:08.792Z,11.70
2023-03-16T23:01:50.663Z,11.40
2023-03-16T23:04:33.238Z,9.70
2023-03-16T23:07:18.514Z,12.50
2023-03-16T23:09:57.336Z,12.60
2023-03-16T23:12:35.010Z,10.80
2023-03-16T23:15:29.977Z,12.90
2023-03-16T23:18:00.921Z,11.40
2023-03-16T23:20:38.498Z,12.30
2023-03-16T23:23:16.461Z,13.30
2023-03-16T23:25:54.089Z,13.10
2023-03-16T23:28:28.634Z,13.50
2023-03-16T23:30:59.036Z,13.50
2023-03-16T23:35:01.819Z,14.30
2023-03-16T23:37:34.831Z,14.40
2023-03-16T23:40:07.509Z,13.10
2023-03-16T23:42:46.378Z,12.10
2023-03-16T23:45:47.486Z,13.60
2023-03-16T23:48:23.031Z,10.80
2023-03-16T23:50:56.677Z,14.00
2023-03-16T23:53:34.192Z,7.30
2023-03-16T23:56:14.678Z,9.80
2023-03-16T23:58:53.244Z,15.20
